Time;durP1;ratioP1;P1;durP2;ratioP2;P2;SDS_P1;SDS_P2;PMS_P1;PMS_P2;Temp;Humidity;BMP_temperature;BMP_pressure;BME280_temperature;BME280_humidity;BME280_pressure;Samples;Min_cycle;Max_cycle;Signal;HPM_P1;HPM_P2
2021/01/23 00:01:36;;;;;;;7.40;3.33;;;2.90;99.90;;;;;;10370642;28;20056;-52
2021/01/23 00:06:57;;;;;;;9.20;3.33;;;2.90;99.90;;;;;;10364254;28;20671;-52
2021/01/23 00:12:18;;;;;;;4.00;1.85;;;2.90;99.90;;;;;;10367182;28;20049;-52
2021/01/23 00:17:39;;;;;;;8.07;2.60;;;2.90;99.90;;;;;;10369204;28;20046;-52
2021/01/23 00:23:00;;;;;;;5.85;2.25;;;2.80;99.90;;;;;;10362929;28;20065;-52
2021/01/23 00:28:21;;;;;;;3.38;1.20;;;2.80;99.90;;;;;;10374655;28;20041;-52
2021/01/23 00:33:42;;;;;;;6.10;1.60;;;2.80;99.90;;;;;;10364237;28;20049;-52
2021/01/23 00:39:04;;;;;;;3.58;2.08;;;2.90;99.90;;;;;;10362861;28;20045;-52
2021/01/23 00:44:25;;;;;;;7.00;2.33;;;2.80;99.90;;;;;;10364541;28;20612;-52
2021/01/23 00:49:46;;;;;;;8.43;2.85;;;2.80;99.90;;;;;;10365884;28;21183;-52
2021/01/23 00:55:07;;;;;;;7.63;3.05;;;2.80;99.90;;;;;;10362273;28;20129;-52
2021/01/23 01:00:28;;;;;;;3.67;1.85;;;2.90;99.90;;;;;;10360575;28;20130;-52
2021/01/23 01:05:49;;;;;;;3.50;1.95;;;2.90;99.90;;;;;;10373484;28;20046;-52
2021/01/23 01:11:10;;;;;;;6.03;2.42;;;2.90;99.90;;;;;;10359674;28;20033;-52
2021/01/23 01:16:31;;;;;;;5.10;2.35;;;2.90;99.90;;;;;;10368602;28;20076;-52
2021/01/23 01:21:52;;;;;;;4.03;2.15;;;2.90;99.90;;;;;;10358496;28;20030;-52
2021/01/23 01:27:13;;;;;;;6.20;2.28;;;3.00;99.90;;;;;;10360546;28;20120;-52
2021/01/23 01:32:34;;;;;;;2.22;1.30;;;3.00;99.90;;;;;;10359988;28;20052;-52
2021/01/23 01:37:55;;;;;;;5.60;2.20;;;3.00;99.90;;;;;;10360930;28;20052;-52
2021/01/23 01:43:16;;;;;;;4.85;2.08;;;3.00;99.90;;;;;;10361806;28;20868;-52
2021/01/23 01:48:37;;;;;;;6.88;2.25;;;3.10;99.90;;;;;;10371646;28;20176;-52
2021/01/23 01:53:59;;;;;;;5.28;1.75;;;3.10;99.90;;;;;;10362076;28;20037;-52
2021/01/23 01:59:20;;;;;;;4.90;1.92;;;3.20;99.90;;;;;;10361517;28;20038;-52
2021/01/23 02:05:01;;;;;;;6.88;2.30;;;3.30;99.90;;;;;;10359687;28;20514;-52
2021/01/23 02:10:27;;;;;;;4.28;1.85;;;3.30;99.90;;;;;;10364091;28;20041;-52
2021/01/23 02:16:04;;;;;;;4.57;2.22;;;3.30;99.90;;;;;;10370751;28;20634;-52
2021/01/23 02:21:49;;;;;;;17.77;2.00;;;3.30;99.90;;;;;;10370045;28;20508;-52
2021/01/23 02:27:16;;;;;;;7.22;2.38;;;3.30;99.90;;;;;;10370545;28;20072;-52
2021/01/23 02:32:39;;;;;;;4.43;1.92;;;3.30;99.90;;;;;;10366221;28;20394;-52
2021/01/23 02:38:03;;;;;;;7.10;2.53;;;3.40;99.90;;;;;;10367490;28;20042;-52
2021/01/23 02:43:23;;;;;;;8.18;3.33;;;3.30;99.90;;;;;;10368033;28;20173;-52
2021/01/23 02:48:47;;;;;;;5.10;2.15;;;3.30;99.90;;;;;;10366483;28;20030;-52
2021/01/23 02:54:20;;;;;;;7.60;3.72;;;3.30;99.90;;;;;;10367434;28;20092;-52
2021/01/23 02:59:44;;;;;;;6.68;2.72;;;3.30;99.90;;;;;;10369501;28;20282;-52
2021/01/23 03:05:06;;;;;;;6.32;2.67;;;3.30;99.90;;;;;;10369089;28;20053;-51
2021/01/23 03:10:37;;;;;;;7.85;1.95;;;3.30;99.90;;;;;;10371344;28;20044;-52
2021/01/23 03:15:58;;;;;;;7.65;2.60;;;3.30;99.90;;;;;;10367426;28;20053;-52
2021/01/23 03:21:19;;;;;;;13.05;3.45;;;3.40;99.90;;;;;;10363232;28;20137;-52
2021/01/23 03:26:40;;;;;;;10.13;2.90;;;3.40;99.90;;;;;;10366320;28;20037;-52
2021/01/23 03:32:02;;;;;;;5.22;2.33;;;3.50;99.90;;;;;;10360995;28;20665;-52
2021/01/23 03:37:24;;;;;;;8.43;3.70;;;3.40;99.90;;;;;;10364511;28;20493;-52
2021/01/23 03:42:45;;;;;;;7.97;3.50;;;3.50;99.90;;;;;;10375500;28;20556;-52
2021/01/23 03:48:07;;;;;;;5.18;2.88;;;3.50;99.90;;;;;;10365001;28;20513;-52
2021/01/23 03:53:28;;;;;;;5.43;2.83;;;3.40;99.90;;;;;;10364203;28;20065;-52
2021/01/23 03:58:49;;;;;;;7.15;3.40;;;3.40;99.90;;;;;;10364534;28;20049;-52
2021/01/23 04:04:10;;;;;;;8.40;2.47;;;3.30;99.90;;;;;;10359400;28;20351;-52
2021/01/23 04:09:31;;;;;;;5.35;2.45;;;3.30;99.90;;;;;;10362513;28;20620;-52
2021/01/23 04:14:53;;;;;;;5.30;3.08;;;3.30;99.90;;;;;;10362919;28;20030;-52
2021/01/23 04:20:14;;;;;;;6.72;2.72;;;3.30;99.90;;;;;;10362875;28;20121;-52
2021/01/23 04:25:35;;;;;;;7.72;1.42;;;3.20;99.90;;;;;;10360810;28;20037;-52
2021/01/23 04:30:56;;;;;;;7.07;2.22;;;3.20;99.90;;;;;;10362737;28;20030;-52
2021/01/23 04:36:17;;;;;;;5.63;2.38;;;3.20;99.90;;;;;;10364535;28;20042;-52
2021/01/23 04:41:38;;;;;;;5.75;3.13;;;3.10;99.90;;;;;;10368577;28;20068;-52
2021/01/23 04:47:01;;;;;;;9.07;4.50;;;3.10;99.90;;;;;;10361742;28;20137;-52
2021/01/23 04:52:23;;;;;;;9.20;2.58;;;3.20;99.90;;;;;;10362743;28;20052;-51
2021/01/23 04:57:44;;;;;;;5.40;2.25;;;3.10;99.90;;;;;;10360686;28;20029;-52
2021/01/23 05:03:06;;;;;;;4.43;2.35;;;3.10;99.90;;;;;;10359745;28;20103;-52
2021/01/23 05:08:37;;;;;;;13.88;2.05;;;3.10;99.90;;;;;;10359061;28;20053;-52
2021/01/23 05:14:14;;;;;;;11.05;4.43;;;3.20;99.90;;;;;;10362555;28;20634;-52
2021/01/23 05:19:44;;;;;;;8.43;2.85;;;3.30;99.90;;;;;;10359780;28;20036;-52
2021/01/23 05:25:10;;;;;;;9.52;3.75;;;3.30;99.90;;;;;;10359614;28;20051;-52
2021/01/23 05:30:40;;;;;;;6.13;2.20;;;3.40;99.90;;;;;;10358055;28;20092;-52
2021/01/23 05:36:02;;;;;;;7.07;1.92;;;3.40;99.90;;;;;;10350761;28;20041;-52
2021/01/23 05:41:23;;;;;;;5.68;2.25;;;3.40;99.90;;;;;;10361566;28;20048;-52
2021/01/23 05:46:44;;;;;;;5.95;1.98;;;3.50;99.90;;;;;;10362140;28;20124;-52
2021/01/23 05:52:05;;;;;;;3.95;2.65;;;3.60;99.90;;;;;;10362286;28;20053;-52
2021/01/23 05:57:27;;;;;;;5.35;1.92;;;3.70;99.90;;;;;;10359138;28;20041;-52
2021/01/23 06:02:50;;;;;;;3.15;1.45;;;3.80;99.90;;;;;;10362117;28;20651;-52
2021/01/23 06:08:11;;;;;;;4.60;1.88;;;3.80;99.90;;;;;;10361557;28;20057;-52
2021/01/23 06:13:38;;;;;;;3.92;1.15;;;3.80;99.90;;;;;;10358877;28;20034;-52
2021/01/23 06:18:59;;;;;;;3.83;1.42;;;3.80;99.90;;;;;;10358762;28;20045;-51
2021/01/23 06:24:32;;;;;;;3.20;1.38;;;3.90;99.90;;;;;;10365031;28;20140;-52
2021/01/23 06:29:53;;;;;;;2.75;1.63;;;3.90;99.90;;;;;;10357757;28;20042;-52
2021/01/23 06:35:14;;;;;;;5.38;2.30;;;3.80;99.90;;;;;;10370450;28;20489;-52
2021/01/23 06:40:35;;;;;;;8.65;2.15;;;3.80;99.90;;;;;;10358191;28;20046;-51
2021/01/23 06:45:56;;;;;;;5.20;1.73;;;3.80;99.90;;;;;;10363697;28;20041;-52
2021/01/23 06:51:20;;;;;;;3.65;1.90;;;3.80;99.90;;;;;;10363747;28;20048;-52
2021/01/23 06:56:42;;;;;;;3.42;1.70;;;3.80;99.90;;;;;;10367979;28;20030;-52
2021/01/23 07:02:14;;;;;;;4.47;1.98;;;3.90;99.90;;;;;;10370290;28;20045;-52
2021/01/23 07:07:39;;;;;;;2.75;1.55;;;4.00;99.90;;;;;;10367538;28;20041;-52
2021/01/23 07:13:00;;;;;;;4.65;1.75;;;3.90;99.90;;;;;;10364447;28;20120;-52
2021/01/23 07:18:21;;;;;;;7.45;1.75;;;4.00;99.90;;;;;;10364767;28;20042;-52
2021/01/23 07:23:42;;;;;;;3.53;1.92;;;4.00;99.90;;;;;;10365066;28;20034;-52
2021/01/23 07:29:03;;;;;;;6.32;1.45;;;4.10;99.90;;;;;;10363495;28;20041;-52
2021/01/23 07:34:24;;;;;;;3.30;1.30;;;4.10;99.90;;;;;;10366183;28;20212;-52
2021/01/23 07:39:45;;;;;;;3.80;1.55;;;4.10;99.90;;;;;;10368485;28;20454;-51
2021/01/23 07:45:08;;;;;;;11.52;1.65;;;4.10;99.90;;;;;;10364229;28;20081;-52
2021/01/23 07:50:40;;;;;;;6.38;2.22;;;4.10;99.90;;;;;;10372477;28;20049;-52
2021/01/23 07:56:01;;;;;;;2.72;1.38;;;4.00;99.90;;;;;;10366891;28;20634;-52
2021/01/23 08:01:23;;;;;;;3.50;1.45;;;4.10;99.90;;;;;;10366869;28;20482;-52
2021/01/23 08:06:44;;;;;;;4.30;1.95;;;4.20;99.90;;;;;;10362660;28;20405;-51
2021/01/23 08:12:17;;;;;;;4.90;1.75;;;4.20;99.90;;;;;;10365133;28;20076;-52
2021/01/23 08:17:46;;;;;;;4.53;1.80;;;4.20;99.90;;;;;;10362714;28;20736;-52
2021/01/23 08:23:11;;;;;;;2.80;1.75;;;4.20;99.90;;;;;;10367105;28;20042;-52
2021/01/23 08:28:39;;;;;;;6.53;1.48;;;4.10;99.90;;;;;;10363171;28;20048;-52
2021/01/23 08:34:00;;;;;;;4.23;1.23;;;4.00;99.90;;;;;;10359860;28;20705;-52
2021/01/23 08:39:21;;;;;;;3.47;0.90;;;4.10;99.90;;;;;;10355627;28;20281;-52
2021/01/23 08:44:42;;;;;;;5.85;1.27;;;4.00;99.90;;;;;;10363193;28;20037;-52
2021/01/23 08:50:04;;;;;;;3.53;1.42;;;4.00;99.90;;;;;;10364126;28;20599;-52
2021/01/23 08:55:24;;;;;;;2.20;1.02;;;4.00;99.90;;;;;;10361331;28;20092;-52
2021/01/23 09:00:46;;;;;;;2.55;1.00;;;3.90;99.90;;;;;;10364605;28;20034;-52
2021/01/23 09:06:07;;;;;;;4.82;1.73;;;4.00;99.90;;;;;;10357784;28;20128;-52
2021/01/23 09:21:49;;;;;;;4.05;1.00;;;4.10;99.90;;;;;;10599384;23;20712;-53
2021/01/23 09:27:10;;;;;;;2.45;0.85;;;4.10;99.90;;;;;;10530911;23;20279;-54
2021/01/23 09:32:31;;;;;;;1.92;0.85;;;3.90;99.90;;;;;;10233931;28;20031;-54
2021/01/23 09:37:52;;;;;;;2.63;0.82;;;4.00;99.90;;;;;;10227252;28;20045;-53
2021/01/23 09:43:13;;;;;;;5.88;1.65;;;4.00;99.90;;;;;;10234202;28;20090;-53
2021/01/23 09:48:34;;;;;;;3.63;1.40;;;4.10;99.90;;;;;;10233016;28;20038;-54
2021/01/23 09:53:55;;;;;;;5.35;1.05;;;4.30;99.90;;;;;;10230038;28;20042;-54
2021/01/23 09:59:16;;;;;;;1.92;1.00;;;4.30;99.90;;;;;;10227324;28;20393;-53
2021/01/23 10:04:37;;;;;;;2.60;1.10;;;4.30;99.90;;;;;;10233769;28;20066;-53
2021/01/23 10:09:58;;;;;;;3.67;1.13;;;4.40;99.90;;;;;;10231225;28;20043;-53
2021/01/23 10:15:20;;;;;;;3.88;1.55;;;4.50;99.90;;;;;;10231948;28;20035;-53
2021/01/23 10:20:41;;;;;;;6.88;1.48;;;4.50;99.90;;;;;;10226134;28;20089;-54
2021/01/23 10:26:02;;;;;;;7.07;2.20;;;4.60;99.90;;;;;;10215989;28;20118;-53
2021/01/23 10:31:23;;;;;;;4.82;1.40;;;4.70;99.90;;;;;;10230405;28;20136;-54
2021/01/23 10:36:44;;;;;;;3.88;1.80;;;5.10;99.90;;;;;;10236992;28;20144;-54
2021/01/23 10:42:05;;;;;;;2.53;1.27;;;5.70;99.90;;;;;;10230466;28;20479;-53
2021/01/23 10:47:26;;;;;;;2.17;1.10;;;5.80;99.90;;;;;;10236654;28;20134;-53
2021/01/23 10:52:48;;;;;;;3.00;1.67;;;5.80;99.90;;;;;;10234403;28;20039;-54
2021/01/23 10:58:08;;;;;;;7.35;2.95;;;5.80;99.90;;;;;;10230754;28;20371;-54
2021/01/23 11:03:29;;;;;;;4.78;1.35;;;6.20;99.90;;;;;;10233501;28;20142;-54
2021/01/23 11:08:50;;;;;;;4.70;1.67;;;6.90;99.90;;;;;;10220112;28;20679;-53
2021/01/23 11:14:11;;;;;;;5.53;1.85;;;7.30;99.90;;;;;;10235831;28;20039;-54
2021/01/23 11:19:32;;;;;;;6.05;2.03;;;7.00;99.90;;;;;;10229911;28;20507;-53
2021/01/23 11:24:54;;;;;;;9.70;2.58;;;6.60;99.90;;;;;;10232485;28;20082;-54
2021/01/23 11:30:16;;;;;;;5.80;2.50;;;7.30;99.90;;;;;;10231220;28;20047;-53
2021/01/23 11:35:37;;;;;;;3.75;1.77;;;7.60;99.90;;;;;;10232170;28;20486;-53
2021/01/23 11:40:58;;;;;;;8.05;1.88;;;7.00;99.90;;;;;;10223546;28;20043;-53
2021/01/23 11:46:19;;;;;;;7.60;2.75;;;6.40;99.90;;;;;;10235885;28;20049;-53
2021/01/23 11:51:40;;;;;;;5.75;2.20;;;6.20;99.90;;;;;;10230019;28;20050;-54
2021/01/23 11:57:01;;;;;;;4.50;1.80;;;6.10;99.90;;;;;;10230525;28;20397;-53
2021/01/23 12:02:22;;;;;;;6.90;1.83;;;6.20;99.90;;;;;;10230420;28;20059;-53
2021/01/23 12:07:43;;;;;;;4.28;1.58;;;6.50;99.90;;;;;;10231217;28;20439;-53
2021/01/23 12:13:04;;;;;;;4.80;1.85;;;6.40;99.90;;;;;;10235121;28;20051;-53
2021/01/23 12:18:25;;;;;;;3.75;1.88;;;6.40;99.90;;;;;;10225892;28;20130;-54
2021/01/23 12:23:46;;;;;;;3.33;1.55;;;6.20;99.90;;;;;;10232698;28;20077;-53
2021/01/23 12:29:06;;;;;;;6.75;2.10;;;6.40;99.90;;;;;;10232782;28;20043;-53
2021/01/23 12:34:27;;;;;;;3.60;1.20;;;7.10;99.90;;;;;;10235318;28;20132;-53
2021/01/23 12:39:48;;;;;;;4.78;1.30;;;7.10;99.90;;;;;;10233173;28;20053;-54
2021/01/23 12:45:13;;;;;;;3.55;1.90;;;7.30;99.90;;;;;;10231134;28;20050;-54
2021/01/23 12:50:34;;;;;;;2.67;1.23;;;7.00;99.90;;;;;;10231726;28;20061;-52
2021/01/23 12:55:55;;;;;;;4.78;2.03;;;7.00;99.90;;;;;;10237853;28;20089;-52
2021/01/23 13:01:16;;;;;;;2.58;1.20;;;7.20;99.90;;;;;;10233990;28;20084;-52
2021/01/23 13:06:37;;;;;;;4.32;1.75;;;7.80;99.90;;;;;;10230378;28;20558;-52
2021/01/23 13:11:58;;;;;;;3.83;1.42;;;7.70;99.90;;;;;;10234159;28;20046;-52
2021/01/23 13:17:19;;;;;;;5.60;1.58;;;7.50;99.90;;;;;;10214635;28;20133;-52
2021/01/23 13:22:40;;;;;;;1.80;0.93;;;7.40;99.90;;;;;;10233653;28;20058;-52
2021/01/23 13:28:01;;;;;;;4.15;1.33;;;7.30;99.90;;;;;;10217698;28;20058;-50
2021/01/23 13:33:23;;;;;;;4.07;1.33;;;7.00;99.90;;;;;;10228169;28;20110;-52
2021/01/23 13:38:44;;;;;;;4.57;1.60;;;6.50;99.90;;;;;;10215514;28;20088;-52
2021/01/23 13:44:05;;;;;;;2.90;1.35;;;6.30;99.90;;;;;;10231508;28;20035;-52
2021/01/23 13:49:26;;;;;;;4.57;2.38;;;6.00;99.90;;;;;;10232711;28;20038;-52
2021/01/23 13:54:47;;;;;;;3.28;1.42;;;6.00;99.90;;;;;;10231389;28;20066;-52
2021/01/23 14:00:12;;;;;;;3.40;1.33;;;5.90;99.90;;;;;;10229139;28;20126;-52
2021/01/23 14:05:33;;;;;;;2.72;1.13;;;5.70;99.90;;;;;;10225875;28;20105;-52
2021/01/23 14:10:55;;;;;;;2.75;1.13;;;5.70;99.90;;;;;;10228632;28;20035;-52
2021/01/23 14:16:18;;;;;;;6.03;1.30;;;5.70;99.90;;;;;;10232470;28;20051;-52
2021/01/23 14:21:40;;;;;;;3.15;1.17;;;5.70;99.90;;;;;;10230429;28;20411;-52
2021/01/23 14:27:02;;;;;;;4.25;1.52;;;5.70;99.90;;;;;;10231912;28;20057;-52
2021/01/23 14:32:23;;;;;;;3.88;1.75;;;5.70;99.90;;;;;;10227106;28;20491;-52
2021/01/23 14:37:44;;;;;;;7.80;1.33;;;5.60;99.90;;;;;;10226154;28;20146;-52
2021/01/23 14:43:04;;;;;;;2.78;1.20;;;5.50;99.90;;;;;;10228067;28;20039;-52
2021/01/23 14:48:25;;;;;;;4.25;1.85;;;5.50;99.90;;;;;;10230555;28;20043;-52
2021/01/23 14:53:46;;;;;;;6.35;2.63;;;5.40;99.90;;;;;;10231095;28;20503;-52
2021/01/23 14:59:07;;;;;;;2.55;1.80;;;5.40;99.90;;;;;;10229116;28;20046;-52
2021/01/23 15:04:28;;;;;;;4.13;1.58;;;5.60;99.90;;;;;;10228775;28;20054;-52
2021/01/23 15:09:49;;;;;;;5.75;1.52;;;5.60;99.90;;;;;;10230887;28;20101;-52
2021/01/23 15:15:11;;;;;;;5.82;1.73;;;5.70;99.90;;;;;;10232942;28;20453;-52
2021/01/23 15:20:32;;;;;;;4.35;2.50;;;5.70;99.90;;;;;;10222310;28;20694;-52
2021/01/23 15:25:53;;;;;;;4.18;1.30;;;5.50;99.90;;;;;;10230426;28;20422;-52
2021/01/23 15:31:14;;;;;;;4.45;1.80;;;5.40;99.90;;;;;;10233858;28;20042;-52
2021/01/23 15:36:35;;;;;;;4.20;1.55;;;5.40;99.90;;;;;;10237031;28;20050;-52
2021/01/23 15:41:56;;;;;;;7.43;2.30;;;5.30;99.90;;;;;;10221862;28;20645;-51
2021/01/23 15:47:17;;;;;;;5.82;1.92;;;5.20;99.90;;;;;;10226674;28;20486;-52
2021/01/23 15:52:38;;;;;;;5.97;2.17;;;5.10;99.90;;;;;;10232501;28;20035;-52
2021/01/23 15:58:00;;;;;;;2.53;1.13;;;5.00;99.90;;;;;;10230540;28;20072;-52
2021/01/23 16:03:21;;;;;;;3.42;1.45;;;4.90;99.90;;;;;;10228998;28;20134;-52
2021/01/23 16:08:42;;;;;;;8.13;2.33;;;5.00;99.90;;;;;;10232526;28;20047;-51
2021/01/23 16:14:04;;;;;;;2.33;1.45;;;4.90;99.90;;;;;;10229928;28;20031;-52
2021/01/23 16:19:25;;;;;;;13.18;2.42;;;4.90;99.90;;;;;;10227884;28;20039;-52
2021/01/23 16:24:46;;;;;;;5.35;1.63;;;4.90;99.90;;;;;;10233395;28;20457;-52
2021/01/23 16:30:07;;;;;;;7.32;2.70;;;4.80;99.90;;;;;;10233540;28;20165;-52
2021/01/23 16:35:28;;;;;;;4.20;1.95;;;4.70;99.90;;;;;;10233221;28;20085;-52
2021/01/23 16:40:49;;;;;;;4.22;1.85;;;4.70;99.90;;;;;;10225237;28;20530;-52
2021/01/23 16:46:10;;;;;;;5.80;1.58;;;4.70;99.90;;;;;;10229020;28;20051;-52
2021/01/23 16:51:32;;;;;;;4.38;2.53;;;4.80;99.90;;;;;;10232012;28;20278;-52
2021/01/23 16:56:53;;;;;;;3.35;1.75;;;4.70;99.90;;;;;;10234047;28;20053;-52
2021/01/23 17:02:14;;;;;;;6.90;2.25;;;4.70;99.90;;;;;;10226783;28;20043;-53
2021/01/23 17:07:34;;;;;;;7.88;2.40;;;4.60;99.90;;;;;;10232730;28;20047;-52
2021/01/23 17:12:55;;;;;;;7.45;2.50;;;4.50;99.90;;;;;;10234873;28;20514;-52
2021/01/23 17:18:17;;;;;;;6.90;2.33;;;4.50;99.90;;;;;;10232280;28;20098;-52
2021/01/23 17:23:38;;;;;;;5.55;3.03;;;4.50;99.90;;;;;;10228669;28;20041;-51
2021/01/23 17:28:59;;;;;;;5.20;2.35;;;4.60;99.90;;;;;;10227623;28;20050;-52
2021/01/23 17:34:20;;;;;;;8.05;3.88;;;4.60;99.90;;;;;;10229510;28;20149;-52
2021/01/23 17:39:41;;;;;;;5.03;2.42;;;4.50;99.90;;;;;;10232021;28;20039;-52
2021/01/23 17:45:04;;;;;;;5.63;2.55;;;4.40;99.90;;;;;;10221091;28;20047;-51
2021/01/23 17:50:25;;;;;;;5.60;2.83;;;4.40;99.90;;;;;;10224424;28;20383;-52
2021/01/23 17:55:46;;;;;;;15.68;3.75;;;4.20;99.90;;;;;;10230528;28;20039;-52
2021/01/23 18:01:07;;;;;;;5.50;2.38;;;4.20;99.90;;;;;;10228104;28;20644;-52
2021/01/23 18:06:28;;;;;;;13.13;5.45;;;4.30;99.90;;;;;;10227099;28;20142;-52
2021/01/23 18:11:50;;;;;;;9.35;3.78;;;4.30;99.90;;;;;;10230327;28;20055;-52
2021/01/23 18:17:11;;;;;;;4.65;2.58;;;4.30;99.90;;;;;;10226772;28;20038;-52
2021/01/23 18:22:32;;;;;;;7.93;2.72;;;4.20;99.90;;;;;;10228276;28;20065;-52
2021/01/23 18:27:53;;;;;;;9.50;3.00;;;4.30;99.90;;;;;;10226052;28;20047;-52
2021/01/23 18:33:14;;;;;;;7.43;3.15;;;4.30;99.90;;;;;;10234080;28;20039;-52
2021/01/23 18:38:35;;;;;;;14.40;5.38;;;4.30;99.90;;;;;;10228943;28;20047;-52
2021/01/23 18:43:56;;;;;;;8.73;3.63;;;4.30;99.90;;;;;;10227557;28;20035;-52
2021/01/23 18:49:18;;;;;;;7.18;2.83;;;4.30;99.90;;;;;;10229271;28;20043;-52
2021/01/23 18:54:39;;;;;;;4.93;1.40;;;4.20;99.90;;;;;;10231993;28;20086;-52
2021/01/23 19:00:01;;;;;;;3.03;1.20;;;4.20;99.90;;;;;;10235975;28;20086;-52
2021/01/23 19:05:22;;;;;;;2.40;1.00;;;4.10;99.90;;;;;;10235288;28;20294;-52
2021/01/23 19:10:42;;;;;;;1.25;0.65;;;4.10;99.90;;;;;;10234123;28;20039;-52
2021/01/23 19:16:04;;;;;;;0.95;0.40;;;4.00;99.90;;;;;;10231968;28;20039;-52
2021/01/23 19:21:25;;;;;;;1.98;0.55;;;3.90;99.90;;;;;;10237065;28;20030;-52
2021/01/23 19:26:46;;;;;;;3.05;1.13;;;3.80;99.90;;;;;;10235689;28;20093;-52
2021/01/23 19:32:07;;;;;;;4.03;1.23;;;3.80;99.90;;;;;;10234883;28;20052;-52
2021/01/23 19:37:28;;;;;;;6.90;1.58;;;3.90;99.90;;;;;;10238635;28;20128;-52
2021/01/23 19:42:49;;;;;;;2.25;0.63;;;3.90;99.90;;;;;;10222729;28;20118;-52
2021/01/23 19:48:10;;;;;;;2.97;1.58;;;3.90;99.90;;;;;;10222890;28;20069;-52
2021/01/23 19:53:31;;;;;;;3.30;1.50;;;3.90;99.90;;;;;;10235258;28;20051;-52
2021/01/23 19:58:51;;;;;;;3.97;2.03;;;4.00;99.90;;;;;;10234469;28;20046;-52
2021/01/23 20:04:12;;;;;;;3.60;0.98;;;3.90;99.90;;;;;;10231779;28;20051;-52
2021/01/23 20:09:33;;;;;;;3.05;1.13;;;3.90;99.90;;;;;;10234482;28;20035;-52
2021/01/23 20:14:55;;;;;;;1.33;1.15;;;3.90;99.90;;;;;;10234531;28;20043;-52
2021/01/23 20:20:17;;;;;;;7.32;2.33;;;3.90;99.90;;;;;;10216327;28;20042;-52
2021/01/23 20:25:38;;;;;;;6.75;1.95;;;3.90;99.90;;;;;;10234381;28;20647;-52
2021/01/23 20:30:59;;;;;;;3.97;1.55;;;4.00;99.90;;;;;;10230719;28;20078;-51
2021/01/23 20:36:21;;;;;;;6.13;1.77;;;4.00;99.90;;;;;;10230868;28;20042;-52
2021/01/23 20:41:42;;;;;;;3.58;1.60;;;4.00;99.90;;;;;;10232163;28;20560;-52
2021/01/23 20:47:03;;;;;;;5.78;2.25;;;3.90;99.90;;;;;;10234767;28;20458;-51
2021/01/23 20:52:23;;;;;;;5.50;2.08;;;4.00;99.90;;;;;;10230861;28;20047;-52
2021/01/23 20:57:45;;;;;;;4.13;1.17;;;4.00;99.90;;;;;;10230527;28;20377;-52
2021/01/23 21:03:06;;;;;;;4.15;1.60;;;4.00;99.90;;;;;;10232062;28;20053;-51
2021/01/23 21:08:27;;;;;;;4.43;1.73;;;4.00;99.90;;;;;;10230086;28;20042;-52
2021/01/23 21:13:48;;;;;;;2.20;1.42;;;3.90;99.90;;;;;;10229043;28;20085;-51
2021/01/23 21:19:09;;;;;;;2.58;1.33;;;3.90;99.90;;;;;;10227912;28;20039;-52
2021/01/23 21:24:31;;;;;;;5.65;1.70;;;3.90;99.90;;;;;;10231594;28;20126;-51
2021/01/23 21:29:52;;;;;;;6.32;2.13;;;3.90;99.90;;;;;;10226985;28;20047;-52
2021/01/23 21:35:16;;;;;;;6.65;2.55;;;3.80;99.90;;;;;;10226052;28;20038;-51
2021/01/23 21:40:37;;;;;;;6.25;2.03;;;3.90;99.90;;;;;;10231729;28;20451;-52
2021/01/23 21:45:58;;;;;;;4.78;1.70;;;3.90;99.90;;;;;;10234642;28;20074;-52
2021/01/23 21:51:19;;;;;;;5.00;2.65;;;3.90;99.90;;;;;;10231353;28;20486;-52
2021/01/23 21:56:40;;;;;;;3.70;2.13;;;3.80;99.90;;;;;;10239848;28;20336;-52
2021/01/23 22:02:01;;;;;;;8.13;2.53;;;3.80;99.90;;;;;;10230700;28;20039;-51
2021/01/23 22:07:22;;;;;;;7.20;2.15;;;3.70;99.90;;;;;;10229178;28;20201;-52
2021/01/23 22:12:43;;;;;;;5.75;1.95;;;3.80;99.90;;;;;;10232495;28;20066;-52
2021/01/23 22:18:04;;;;;;;6.53;2.35;;;3.80;99.90;;;;;;10227693;28;20145;-52
2021/01/23 22:23:25;;;;;;;4.85;2.22;;;3.80;99.90;;;;;;10229076;28;21242;-52
2021/01/23 22:28:47;;;;;;;11.35;2.17;;;3.70;99.90;;;;;;10241033;28;20043;-52
2021/01/23 22:34:08;;;;;;;7.40;3.13;;;3.80;99.90;;;;;;10235173;28;20043;-51
2021/01/23 22:39:29;;;;;;;4.28;2.72;;;3.80;99.90;;;;;;10239775;28;20057;-52
2021/01/23 22:44:50;;;;;;;6.15;2.28;;;3.70;99.90;;;;;;10240198;28;20331;-52
2021/01/23 22:50:11;;;;;;;9.45;2.42;;;3.70;99.90;;;;;;10240175;28;20142;-52
2021/01/23 22:55:32;;;;;;;5.32;2.20;;;3.70;99.90;;;;;;10239718;28;20475;-52
2021/01/23 23:00:57;;;;;;;6.03;2.70;;;3.70;99.90;;;;;;10239405;28;20478;-51
2021/01/23 23:06:18;;;;;;;6.65;2.20;;;3.70;99.90;;;;;;10242801;28;20711;-52
2021/01/23 23:11:39;;;;;;;5.90;2.03;;;3.70;99.90;;;;;;10236221;28;20494;-52
2021/01/23 23:17:00;;;;;;;4.45;2.50;;;3.60;99.90;;;;;;10224919;28;20031;-52
2021/01/23 23:22:21;;;;;;;6.10;2.65;;;3.60;99.90;;;;;;10236715;28;20410;-51
2021/01/23 23:27:42;;;;;;;4.88;2.10;;;3.50;99.90;;;;;;10234908;28;20499;-51
2021/01/23 23:33:04;;;;;;;5.35;2.13;;;3.60;99.90;;;;;;10236574;28;20045;-52
2021/01/23 23:38:24;;;;;;;11.70;2.78;;;3.60;99.90;;;;;;10237288;28;20030;-52
2021/01/23 23:43:45;;;;;;;5.80;2.05;;;3.60;99.90;;;;;;10236791;28;20086;-51
2021/01/23 23:49:07;;;;;;;8.02;2.75;;;3.50;99.90;;;;;;10235042;28;20055;-52
2021/01/23 23:54:28;;;;;;;8.27;2.72;;;3.50;99.90;;;;;;10234923;28;20256;-52
2021/01/23 23:59:49;;;;;;;5.22;2.03;;;3.50;99.90;;;;;;10229389;28;20038;-51
